N825BT X04-KLAL
Flight info
| Callsign | N825BT |
|---|---|
| Flight time | N/A |
| Altitude | 4500 |
| Route | VPFSY VPTCK VPKER |
| Aircraft | C172/L-VGD/C |
Departure
| Time | N/A |
|---|---|
| Airport | X04 |
Arrival
| Time | 2026-04-26 20:33 |
|---|---|
| Airport | Lakeland Linder International Airport (KLAL) |
| Time | Latitude | Longitude | Altitude | Speed | Heading |
|---|---|---|---|---|---|
| 2026-04-26 19:41 | 28.70397 | -81.58063 | 112 ft | 0 kts | 123° |
| 2026-04-26 19:45 | 28.70397 | -81.58062 | 112 ft | 0 kts | 124° |
| 2026-04-26 19:55 | 28.70396 | -81.58061 | 112 ft | 1 kts | 118° |
| 2026-04-26 19:56 | 28.70396 | -81.58049 | 112 ft | 1 kts | 74° |
| 2026-04-26 19:56 | 28.70401 | -81.58023 | 112 ft | 5 kts | 80° |
| 2026-04-26 19:56 | 28.70391 | -81.57972 | 112 ft | 7 kts | 70° |
| 2026-04-26 19:56 | 28.70401 | -81.57956 | 113 ft | 0 kts | 21° |
| 2026-04-26 19:57 | 28.70406 | -81.57958 | 113 ft | 4 kts | 324° |
| 2026-04-26 19:57 | 28.70470 | -81.58006 | 115 ft | 34 kts | 327° |
| 2026-04-26 19:57 | 28.70803 | -81.58234 | 160 ft | 66 kts | 330° |
| 2026-04-26 19:57 | 28.71232 | -81.58469 | 294 ft | 71 kts | 326° |
| 2026-04-26 19:58 | 28.71638 | -81.58748 | 482 ft | 67 kts | 317° |
| 2026-04-26 19:58 | 28.71935 | -81.59122 | 660 ft | 63 kts | 284° |
| 2026-04-26 19:58 | 28.71854 | -81.59623 | 835 ft | 62 kts | 253° |
| 2026-04-26 19:58 | 28.71594 | -81.60025 | 975 ft | 73 kts | 207° |
| 2026-04-26 19:59 | 28.71103 | -81.59812 | 1096 ft | 88 kts | 128° |
| 2026-04-26 19:59 | 28.70652 | -81.59358 | 1252 ft | 87 kts | 161° |
| 2026-04-26 19:59 | 28.70107 | -81.59189 | 1491 ft | 79 kts | 174° |
| 2026-04-26 19:59 | 28.69561 | -81.59145 | 1693 ft | 77 kts | 185° |
| 2026-04-26 20:00 | 28.69033 | -81.59190 | 1891 ft | 75 kts | 192° |
| 2026-04-26 20:00 | 28.68518 | -81.59289 | 2082 ft | 75 kts | 197° |
| 2026-04-26 20:00 | 28.68010 | -81.59423 | 2268 ft | 75 kts | 201° |
| 2026-04-26 20:00 | 28.67500 | -81.59583 | 2449 ft | 76 kts | 202° |
| 2026-04-26 20:01 | 28.66988 | -81.59764 | 2635 ft | 77 kts | 204° |
| 2026-04-26 20:01 | 28.66478 | -81.59956 | 2828 ft | 77 kts | 205° |
| 2026-04-26 20:01 | 28.65970 | -81.60153 | 3016 ft | 77 kts | 205° |
| 2026-04-26 20:01 | 28.65455 | -81.60362 | 3196 ft | 78 kts | 207° |
| 2026-04-26 20:02 | 28.64944 | -81.60572 | 3380 ft | 79 kts | 207° |
| 2026-04-26 20:02 | 28.64425 | -81.60786 | 3561 ft | 79 kts | 207° |
| 2026-04-26 20:02 | 28.63913 | -81.61000 | 3744 ft | 79 kts | 207° |
| 2026-04-26 20:02 | 28.63563 | -81.61146 | 3871 ft | 79 kts | 208° |
| 2026-04-26 20:03 | 28.62875 | -81.61437 | 4102 ft | 80 kts | 206° |
| 2026-04-26 20:03 | 28.62349 | -81.61657 | 4281 ft | 80 kts | 205° |
| 2026-04-26 20:03 | 28.61816 | -81.61880 | 4430 ft | 84 kts | 206° |
| 2026-04-26 20:03 | 28.61213 | -81.62146 | 4477 ft | 100 kts | 206° |
| 2026-04-26 20:04 | 28.60518 | -81.62451 | 4474 ft | 113 kts | 206° |
| 2026-04-26 20:04 | 28.59760 | -81.62781 | 4467 ft | 119 kts | 205° |
| 2026-04-26 20:04 | 28.58977 | -81.63116 | 4461 ft | 117 kts | 207° |
| 2026-04-26 20:04 | 28.58220 | -81.63438 | 4466 ft | 115 kts | 206° |
| 2026-04-26 20:05 | 28.57464 | -81.63757 | 4467 ft | 115 kts | 207° |
| 2026-04-26 20:05 | 28.56715 | -81.64072 | 4467 ft | 114 kts | 206° |
| 2026-04-26 20:05 | 28.55970 | -81.64384 | 4469 ft | 113 kts | 207° |
| 2026-04-26 20:05 | 28.55225 | -81.64696 | 4467 ft | 113 kts | 206° |
| 2026-04-26 20:06 | 28.54484 | -81.65009 | 4459 ft | 113 kts | 206° |
| 2026-04-26 20:06 | 28.53738 | -81.65320 | 4462 ft | 112 kts | 206° |
| 2026-04-26 20:06 | 28.53008 | -81.65626 | 4465 ft | 112 kts | 207° |
| 2026-04-26 20:06 | 28.52279 | -81.65932 | 4462 ft | 111 kts | 206° |
| 2026-04-26 20:07 | 28.51542 | -81.66242 | 4465 ft | 111 kts | 205° |
| 2026-04-26 20:07 | 28.50812 | -81.66547 | 4464 ft | 112 kts | 206° |
| 2026-04-26 20:07 | 28.50075 | -81.66856 | 4463 ft | 112 kts | 207° |
| 2026-04-26 20:07 | 28.49330 | -81.67168 | 4453 ft | 112 kts | 206° |
| 2026-04-26 20:08 | 28.48600 | -81.67474 | 4459 ft | 112 kts | 206° |
| 2026-04-26 20:08 | 28.47855 | -81.67786 | 4463 ft | 113 kts | 206° |
| 2026-04-26 20:08 | 28.47118 | -81.68096 | 4467 ft | 114 kts | 206° |
| 2026-04-26 20:08 | 28.46367 | -81.68410 | 4464 ft | 114 kts | 205° |
| 2026-04-26 20:09 | 28.45618 | -81.68723 | 4459 ft | 114 kts | 206° |
| 2026-04-26 20:09 | 28.44869 | -81.69038 | 4463 ft | 114 kts | 205° |
| 2026-04-26 20:09 | 28.44113 | -81.69355 | 4457 ft | 114 kts | 206° |
| 2026-04-26 20:09 | 28.43370 | -81.69666 | 4449 ft | 113 kts | 205° |
| 2026-04-26 20:10 | 28.42635 | -81.69971 | 4452 ft | 112 kts | 206° |
| 2026-04-26 20:10 | 28.41889 | -81.70285 | 4452 ft | 113 kts | 206° |
| 2026-04-26 20:10 | 28.41154 | -81.70590 | 4456 ft | 113 kts | 207° |
| 2026-04-26 20:10 | 28.40417 | -81.70901 | 4455 ft | 113 kts | 206° |
| 2026-04-26 20:11 | 28.39670 | -81.71214 | 4456 ft | 113 kts | 206° |
| 2026-04-26 20:11 | 28.38922 | -81.71526 | 4455 ft | 114 kts | 206° |
| 2026-04-26 20:11 | 28.38169 | -81.71839 | 4448 ft | 114 kts | 206° |
| 2026-04-26 20:12 | 28.36688 | -81.72459 | 4456 ft | 113 kts | 206° |
| 2026-04-26 20:12 | 28.35938 | -81.72774 | 4398 ft | 114 kts | 206° |
| 2026-04-26 20:12 | 28.35213 | -81.73081 | 4276 ft | 107 kts | 206° |
| 2026-04-26 20:12 | 28.34524 | -81.73373 | 4163 ft | 104 kts | 206° |
| 2026-04-26 20:13 | 28.33845 | -81.73659 | 4057 ft | 103 kts | 206° |
| 2026-04-26 20:13 | 28.33169 | -81.73942 | 3954 ft | 105 kts | 207° |
| 2026-04-26 20:13 | 28.32466 | -81.74236 | 3841 ft | 107 kts | 206° |
| 2026-04-26 20:13 | 28.31756 | -81.74532 | 3726 ft | 107 kts | 206° |
| 2026-04-26 20:14 | 28.31053 | -81.74826 | 3606 ft | 108 kts | 207° |
| 2026-04-26 20:14 | 28.30342 | -81.75124 | 3485 ft | 108 kts | 207° |
| 2026-04-26 20:14 | 28.29633 | -81.75418 | 3365 ft | 108 kts | 208° |
| 2026-04-26 20:14 | 28.28933 | -81.75713 | 3246 ft | 108 kts | 207° |
| 2026-04-26 20:15 | 28.28220 | -81.76009 | 3125 ft | 108 kts | 207° |
| 2026-04-26 20:15 | 28.27517 | -81.76304 | 3005 ft | 108 kts | 206° |
| 2026-04-26 20:15 | 28.26814 | -81.76597 | 2892 ft | 107 kts | 207° |
| 2026-04-26 20:15 | 28.26111 | -81.76889 | 2771 ft | 106 kts | 206° |
| 2026-04-26 20:16 | 28.25414 | -81.77179 | 2651 ft | 106 kts | 207° |
| 2026-04-26 20:16 | 28.24720 | -81.77470 | 2528 ft | 106 kts | 207° |
| 2026-04-26 20:16 | 28.24029 | -81.77757 | 2406 ft | 105 kts | 208° |
| 2026-04-26 20:16 | 28.23344 | -81.78040 | 2296 ft | 105 kts | 207° |
| 2026-04-26 20:17 | 28.22650 | -81.78331 | 2182 ft | 105 kts | 208° |
| 2026-04-26 20:17 | 28.21963 | -81.78618 | 2068 ft | 105 kts | 209° |
| 2026-04-26 20:17 | 28.21276 | -81.78902 | 1949 ft | 104 kts | 208° |
| 2026-04-26 20:17 | 28.20595 | -81.79188 | 1834 ft | 104 kts | 207° |
| 2026-04-26 20:18 | 28.19916 | -81.79470 | 1718 ft | 103 kts | 208° |
| 2026-04-26 20:18 | 28.19241 | -81.79751 | 1591 ft | 103 kts | 208° |
| 2026-04-26 20:18 | 28.18573 | -81.80029 | 1485 ft | 102 kts | 208° |
| 2026-04-26 20:18 | 28.17896 | -81.80312 | 1369 ft | 102 kts | 208° |
| 2026-04-26 20:19 | 28.17228 | -81.80589 | 1253 ft | 102 kts | 207° |
| 2026-04-26 20:19 | 28.16555 | -81.80805 | 1248 ft | 102 kts | 190° |
| 2026-04-26 20:19 | 28.15883 | -81.80904 | 1233 ft | 92 kts | 210° |
| 2026-04-26 20:19 | 28.15308 | -81.81200 | 1232 ft | 88 kts | 211° |
| 2026-04-26 20:20 | 28.14749 | -81.81496 | 1232 ft | 90 kts | 214° |
| 2026-04-26 20:20 | 28.14168 | -81.81815 | 1220 ft | 95 kts | 212° |
| 2026-04-26 20:20 | 28.13545 | -81.82154 | 1225 ft | 100 kts | 213° |
| 2026-04-26 20:20 | 28.12914 | -81.82497 | 1217 ft | 102 kts | 212° |
| 2026-04-26 20:21 | 28.12268 | -81.82858 | 1211 ft | 100 kts | 220° |
| 2026-04-26 20:21 | 28.11850 | -81.83439 | 1180 ft | 95 kts | 245° |
| 2026-04-26 20:21 | 28.11549 | -81.84102 | 1174 ft | 93 kts | 248° |
| 2026-04-26 20:21 | 28.11273 | -81.84753 | 1176 ft | 89 kts | 249° |
| 2026-04-26 20:22 | 28.11014 | -81.85380 | 1177 ft | 86 kts | 249° |
| 2026-04-26 20:22 | 28.10759 | -81.86008 | 1175 ft | 86 kts | 248° |
| 2026-04-26 20:22 | 28.10510 | -81.86625 | 1181 ft | 87 kts | 249° |
| 2026-04-26 20:22 | 28.10254 | -81.87263 | 1186 ft | 90 kts | 248° |
| 2026-04-26 20:23 | 28.09996 | -81.87912 | 1177 ft | 91 kts | 249° |
| 2026-04-26 20:23 | 28.09733 | -81.88572 | 1176 ft | 90 kts | 249° |
| 2026-04-26 20:23 | 28.09476 | -81.89214 | 1175 ft | 90 kts | 249° |
| 2026-04-26 20:23 | 28.09219 | -81.89864 | 1177 ft | 90 kts | 249° |
| 2026-04-26 20:24 | 28.08961 | -81.90511 | 1177 ft | 91 kts | 248° |
| 2026-04-26 20:24 | 28.08700 | -81.91167 | 1182 ft | 90 kts | 249° |
| 2026-04-26 20:24 | 28.08442 | -81.91817 | 1182 ft | 90 kts | 250° |
| 2026-04-26 20:24 | 28.08150 | -81.92449 | 1179 ft | 91 kts | 239° |
| 2026-04-26 20:25 | 28.07948 | -81.93115 | 1175 ft | 88 kts | 259° |
| 2026-04-26 20:25 | 28.07876 | -81.93566 | 1180 ft | 88 kts | 260° |
| 2026-04-26 20:25 | 28.07738 | -81.94484 | 1181 ft | 87 kts | 262° |
| 2026-04-26 20:25 | 28.07650 | -81.95159 | 1178 ft | 87 kts | 261° |
| 2026-04-26 20:26 | 28.07554 | -81.95837 | 1182 ft | 86 kts | 262° |
| 2026-04-26 20:26 | 28.07454 | -81.96521 | 1177 ft | 88 kts | 263° |
| 2026-04-26 20:26 | 28.07212 | -81.97152 | 1183 ft | 91 kts | 236° |
| 2026-04-26 20:26 | 28.06744 | -81.97662 | 1175 ft | 93 kts | 229° |
| 2026-04-26 20:27 | 28.06274 | -81.98185 | 1172 ft | 94 kts | 232° |
| 2026-04-26 20:27 | 28.05819 | -81.98719 | 1170 ft | 94 kts | 232° |
| 2026-04-26 20:27 | 28.05408 | -81.99283 | 1163 ft | 92 kts | 240° |
| 2026-04-26 20:27 | 28.05090 | -81.99906 | 1164 ft | 90 kts | 247° |
| 2026-04-26 20:28 | 28.04820 | -82.00549 | 1159 ft | 91 kts | 248° |
| 2026-04-26 20:28 | 28.04552 | -82.01186 | 1163 ft | 89 kts | 248° |
| 2026-04-26 20:28 | 28.04199 | -82.01771 | 1154 ft | 95 kts | 221° |
| 2026-04-26 20:28 | 28.03530 | -82.01911 | 1167 ft | 105 kts | 181° |
| 2026-04-26 20:29 | 28.02806 | -82.01738 | 1175 ft | 105 kts | 178° |
| 2026-04-26 20:29 | 28.02074 | -82.01685 | 1156 ft | 106 kts | 185° |
| 2026-04-26 20:29 | 28.01323 | -82.01632 | 1106 ft | 110 kts | 184° |
| 2026-04-26 20:29 | 28.00560 | -82.01569 | 1103 ft | 107 kts | 184° |
| 2026-04-26 20:30 | 27.99808 | -82.01451 | 1090 ft | 109 kts | 175° |
| 2026-04-26 20:30 | 27.99364 | -82.00806 | 1098 ft | 116 kts | 96° |
| 2026-04-26 20:30 | 27.99370 | -81.99930 | 1132 ft | 108 kts | 82° |
| 2026-04-26 20:30 | 27.99454 | -81.99117 | 966 ft | 97 kts | 79° |
| 2026-04-26 20:31 | 27.99298 | -81.98487 | 812 ft | 76 kts | 162° |
| 2026-04-26 20:31 | 27.98960 | -81.98603 | 699 ft | 56 kts | 279° |
| 2026-04-26 20:31 | 27.99030 | -81.99045 | 571 ft | 58 kts | 272° |
| 2026-04-26 20:31 | 27.99039 | -81.99506 | 517 ft | 58 kts | 266° |
| 2026-04-26 20:32 | 27.99030 | -81.99960 | 469 ft | 58 kts | 266° |
| 2026-04-26 20:32 | 27.99031 | -82.00432 | 408 ft | 60 kts | 268° |
| 2026-04-26 20:32 | 27.99032 | -82.00907 | 315 ft | 57 kts | 270° |
| 2026-04-26 20:32 | 27.99035 | -82.01332 | 208 ft | 51 kts | 268° |
| 2026-04-26 20:33 | 27.99036 | -82.01747 | 154 ft | 52 kts | 264° |
| 2026-04-26 20:33 | 27.99036 | -82.02139 | 140 ft | 46 kts | 268° |
| 2026-04-26 20:33 | 27.99037 | -82.02495 | 125 ft | 42 kts | 269° |
| 2026-04-26 20:33 | 27.99040 | -82.02835 | 125 ft | 40 kts | 271° |
| 2026-04-26 20:34 | 27.99036 | -82.03120 | 127 ft | 31 kts | 268° |
| 2026-04-26 20:34 | 27.99035 | -82.03321 | 128 ft | 16 kts | 269° |
| 2026-04-26 20:34 | 27.98988 | -82.03376 | 128 ft | 12 kts | 183° |
| 2026-04-26 20:34 | 27.98856 | -82.03376 | 128 ft | 16 kts | 185° |
| 2026-04-26 20:35 | 27.98816 | -82.03300 | 127 ft | 11 kts | 93° |
| 2026-04-26 20:35 | 27.98815 | -82.03210 | 126 ft | 12 kts | 90° |
| 2026-04-26 20:35 | 27.98798 | -82.03125 | 124 ft | 7 kts | 103° |
| 2026-04-26 20:35 | 27.98798 | -82.03033 | 124 ft | 15 kts | 65° |
| 2026-04-26 20:36 | 27.98815 | -82.02955 | 124 ft | 17 kts | 85° |
| 2026-04-26 20:36 | 27.98816 | -82.02801 | 122 ft | 17 kts | 85° |
| 2026-04-26 20:36 | 27.98794 | -82.02724 | 122 ft | 6 kts | 178° |
| 2026-04-26 20:36 | 27.98768 | -82.02708 | 122 ft | 1 kts | 122° |
| 2026-04-26 20:37 | 27.98745 | -82.02666 | 122 ft | 6 kts | 141° |
| 2026-04-26 20:37 | 27.98725 | -82.02651 | 122 ft | 2 kts | 129° |
| 2026-04-26 20:37 | 27.98726 | -82.02637 | 122 ft | 0 kts | 358° |